createdAt,value
2023-03-19T00:00:12.460Z,9.82
2023-03-19T00:02:51.335Z,9.84
2023-03-19T00:05:42.229Z,10.05
2023-03-19T00:08:18.668Z,10.04
2023-03-19T00:11:04.662Z,9.90
2023-03-19T00:13:41.148Z,9.96
2023-03-19T00:16:29.979Z,10.15
2023-03-19T00:19:11.141Z,9.99
2023-03-19T00:21:39.750Z,10.02
2023-03-19T00:24:17.806Z,10.13
2023-03-19T00:29:44.410Z,10.32
2023-03-19T00:32:23.186Z,10.14
2023-03-19T00:35:06.728Z,10.17
2023-03-19T00:37:59.006Z,10.20
2023-03-19T00:40:38.487Z,10.48
2023-03-19T00:43:19.344Z,10.33
2023-03-19T00:46:03.851Z,10.39
2023-03-19T00:48:42.116Z,10.55
2023-03-19T00:51:34.105Z,10.36
2023-03-19T00:54:21.944Z,10.61
2023-03-19T00:56:53.827Z,10.67
2023-03-19T00:59:39.134Z,10.66
2023-03-19T01:02:19.437Z,10.69
2023-03-19T01:05:12.364Z,10.63
2023-03-19T01:07:54.918Z,10.68
2023-03-19T01:10:41.976Z,10.82
2023-03-19T01:13:15.828Z,10.95
2023-03-19T01:15:58.819Z,10.74
2023-03-19T01:18:28.460Z,10.89
2023-03-19T01:21:13.277Z,10.78
2023-03-19T01:23:46.174Z,10.78
2023-03-19T01:26:30.109Z,10.80
2023-03-19T01:29:10.696Z,10.89
2023-03-19T01:31:52.274Z,10.96
2023-03-19T01:34:29.701Z,10.84
2023-03-19T01:37:19.579Z,10.86
2023-03-19T01:40:29.271Z,10.76
2023-03-19T01:43:39.162Z,10.50
2023-03-19T01:46:19.297Z,10.56
2023-03-19T01:49:13.488Z,10.51
2023-03-19T01:51:46.192Z,10.46
2023-03-19T01:58:05.239Z,10.54
2023-03-19T02:00:49.569Z,10.33
2023-03-19T02:07:08.863Z,10.50
2023-03-19T02:09:48.118Z,10.25
2023-03-19T02:12:32.995Z,10.46
2023-03-19T02:15:22.130Z,10.35
2023-03-19T02:17:53.889Z,10.32
2023-03-19T02:21:01.455Z,10.30
2023-03-19T02:24:03.855Z,10.22
2023-03-19T02:26:46.043Z,10.42
2023-03-19T02:29:18.346Z,10.40
2023-03-19T02:32:03.266Z,10.36
2023-03-19T02:38:02.906Z,10.24
2023-03-19T02:40:56.377Z,10.32
2023-03-19T02:46:29.240Z,10.14
2023-03-19T02:49:12.535Z,10.24
2023-03-19T02:55:00.112Z,10.21
2023-03-19T02:57:47.969Z,10.05
2023-03-19T03:00:35.453Z,10.28
2023-03-19T03:03:31.542Z,10.25
2023-03-19T03:06:30.545Z,10.02
2023-03-19T03:09:07.869Z,10.22
2023-03-19T03:11:40.600Z,9.99
2023-03-19T03:14:29.005Z,10.18
2023-03-19T03:17:06.450Z,9.96
2023-03-19T03:19:42.293Z,9.95
2023-03-19T03:22:22.551Z,9.96
2023-03-19T03:25:15.529Z,9.97
2023-03-19T03:28:06.665Z,10.02
2023-03-19T03:33:38.298Z,10.06
2023-03-19T03:36:27.530Z,10.06
2023-03-19T03:42:23.531Z,10.24
2023-03-19T03:48:03.660Z,10.32
2023-03-19T03:50:42.721Z,10.13
2023-03-19T03:53:22.724Z,10.13
2023-03-19T03:56:09.722Z,10.25
2023-03-19T03:58:50.203Z,10.35
2023-03-19T04:01:30.716Z,10.09
2023-03-19T04:04:11.487Z,10.16
2023-03-19T04:06:53.614Z,10.08
2023-03-19T04:09:36.408Z,10.09
2023-03-19T04:12:45.870Z,10.09
2023-03-19T04:15:25.908Z,10.10
2023-03-19T04:18:02.944Z,10.27
2023-03-19T04:23:28.121Z,10.12
2023-03-19T04:26:25.535Z,10.13
2023-03-19T04:28:59.803Z,10.14
2023-03-19T04:31:45.459Z,10.10
2023-03-19T04:34:17.385Z,10.14
2023-03-19T04:37:00.775Z,10.31
2023-03-19T04:39:38.222Z,10.32
2023-03-19T04:42:33.899Z,10.29
2023-03-19T04:45:17.547Z,10.07
2023-03-19T04:47:52.704Z,10.18
2023-03-19T04:50:23.922Z,10.17
2023-03-19T04:53:01.742Z,10.12
2023-03-19T04:55:29.087Z,9.99
2023-03-19T04:58:06.757Z,9.99
2023-03-19T05:00:40.652Z,9.79
2023-03-19T05:03:14.662Z,9.71
2023-03-19T05:05:41.463Z,9.73
2023-03-19T05:08:15.580Z,9.74
2023-03-19T05:10:48.482Z,9.73
2023-03-19T05:13:15.205Z,9.55
2023-03-19T05:15:53.260Z,9.69
2023-03-19T05:18:23.177Z,9.62
2023-03-19T05:20:56.693Z,9.55
2023-03-19T05:23:24.179Z,9.61
2023-03-19T05:25:58.615Z,9.47
2023-03-19T05:28:25.630Z,9.60
2023-03-19T05:31:01.699Z,9.52
2023-03-19T05:33:28.813Z,9.49
2023-03-19T05:36:02.701Z,9.42
2023-03-19T05:38:35.656Z,9.45
2023-03-19T05:41:15.582Z,9.41
2023-03-19T05:43:49.608Z,9.37
2023-03-19T05:46:16.668Z,9.45
2023-03-19T05:48:53.296Z,9.42
2023-03-19T05:51:26.744Z,9.37
2023-03-19T05:54:00.602Z,9.42
2023-03-19T05:56:28.183Z,9.38
2023-03-19T05:59:01.603Z,9.36
2023-03-19T06:01:38.350Z,9.34
2023-03-19T06:04:11.828Z,9.34
2023-03-19T06:06:38.885Z,9.42
2023-03-19T06:09:12.583Z,9.36
2023-03-19T06:11:47.670Z,9.34
2023-03-19T06:14:21.614Z,9.28
2023-03-19T06:16:49.050Z,9.36
2023-03-19T06:19:25.294Z,9.38
2023-03-19T06:21:52.804Z,9.35
2023-03-19T06:24:26.557Z,9.33
2023-03-19T06:27:09.462Z,9.33
2023-03-19T06:29:43.757Z,9.52
2023-03-19T06:32:17.646Z,9.41
2023-03-19T06:34:51.746Z,9.55
2023-03-19T06:37:19.704Z,9.51
2023-03-19T06:40:01.613Z,9.58
2023-03-19T06:42:28.651Z,9.53
2023-03-19T06:45:02.616Z,9.65
2023-03-19T06:47:29.788Z,9.66
2023-03-19T06:49:56.816Z,9.64
2023-03-19T06:52:47.702Z,9.62
2023-03-19T06:55:21.204Z,9.57
2023-03-19T06:57:58.824Z,9.68
2023-03-19T07:00:25.970Z,9.55
2023-03-19T07:02:59.729Z,9.55
2023-03-19T07:05:27.056Z,9.73
2023-03-19T07:07:54.203Z,9.70
2023-03-19T07:10:28.890Z,9.68
2023-03-19T07:12:56.292Z,9.79
2023-03-19T07:15:30.777Z,9.67
2023-03-19T07:18:04.839Z,9.79
2023-03-19T07:20:32.345Z,9.79
2023-03-19T07:23:06.721Z,9.75
2023-03-19T07:25:40.873Z,9.78
2023-03-19T07:28:15.712Z,9.77
2023-03-19T07:30:49.673Z,9.87
2023-03-19T07:33:23.718Z,9.90
2023-03-19T07:35:54.099Z,10.00
2023-03-19T07:38:28.660Z,9.89
2023-03-19T07:41:08.133Z,10.01
2023-03-19T07:43:41.776Z,10.03
2023-03-19T07:46:20.069Z,10.03
2023-03-19T07:48:58.802Z,10.02
2023-03-19T07:51:33.744Z,9.97
2023-03-19T07:54:14.987Z,10.06
2023-03-19T07:56:42.553Z,10.22
2023-03-19T07:59:16.616Z,10.15
2023-03-19T08:01:50.934Z,10.20
2023-03-19T08:04:21.208Z,10.36
2023-03-19T08:06:54.796Z,10.34
2023-03-19T08:09:25.423Z,10.44
2023-03-19T08:11:59.900Z,10.47
2023-03-19T08:14:27.404Z,10.44
2023-03-19T08:17:00.939Z,10.50
2023-03-19T08:19:28.466Z,10.52
2023-03-19T08:22:08.848Z,10.57
2023-03-19T08:24:36.832Z,10.50
2023-03-19T08:27:10.705Z,10.62
2023-03-19T08:29:40.865Z,10.61
2023-03-19T08:32:09.091Z,10.56
2023-03-19T08:34:49.454Z,10.73
2023-03-19T08:37:23.844Z,10.62
2023-03-19T08:40:15.780Z,10.84
2023-03-19T08:42:45.554Z,10.90
2023-03-19T08:45:24.548Z,10.89
2023-03-19T08:47:52.191Z,10.96
2023-03-19T08:50:29.020Z,11.06
2023-03-19T08:53:00.010Z,11.06
2023-03-19T08:55:42.621Z,11.21
2023-03-19T08:58:16.376Z,11.20
2023-03-19T09:00:53.021Z,11.18
2023-03-19T09:03:22.357Z,11.19
2023-03-19T09:06:01.187Z,11.09
2023-03-19T09:08:31.757Z,11.03
2023-03-19T09:11:26.603Z,10.99
2023-03-19T09:14:02.215Z,11.07
2023-03-19T09:16:42.824Z,10.99
2023-03-19T09:19:20.824Z,11.10
2023-03-19T09:21:51.345Z,11.16
2023-03-19T09:24:34.052Z,11.13
2023-03-19T09:27:08.828Z,10.98
2023-03-19T09:29:42.750Z,11.01
2023-03-19T09:32:26.581Z,11.11
2023-03-19T09:35:01.058Z,11.23
2023-03-19T09:37:34.787Z,11.29
2023-03-19T09:40:09.730Z,11.29
2023-03-19T09:43:04.904Z,11.52
2023-03-19T09:45:39.057Z,11.59
2023-03-19T09:48:20.641Z,11.80
2023-03-19T09:51:00.013Z,11.84
2023-03-19T09:53:56.776Z,12.02
2023-03-19T09:56:44.895Z,12.01
2023-03-19T09:59:15.140Z,11.78
2023-03-19T10:02:42.134Z,11.83
2023-03-19T10:05:27.003Z,11.78
2023-03-19T10:08:23.642Z,11.86
2023-03-19T10:11:06.866Z,12.15
2023-03-19T10:13:58.248Z,12.19
2023-03-19T10:16:45.759Z,12.53
2023-03-19T10:19:25.125Z,12.78
2023-03-19T10:22:14.992Z,13.26
2023-03-19T10:24:58.244Z,13.54
2023-03-19T10:27:38.947Z,13.70
2023-03-19T10:30:23.390Z,14.20
2023-03-19T10:33:30.901Z,14.70
2023-03-19T10:36:19.316Z,14.53
2023-03-19T10:39:01.013Z,14.31
2023-03-19T10:42:19.662Z,14.12
2023-03-19T10:44:58.958Z,14.20
2023-03-19T10:47:34.411Z,14.45
2023-03-19T10:50:45.759Z,14.96
2023-03-19T10:53:33.592Z,15.63
2023-03-19T10:56:11.228Z,16.00
2023-03-19T10:58:49.034Z,16.30
2023-03-19T11:01:26.926Z,16.53
2023-03-19T11:04:02.939Z,17.00
2023-03-19T11:06:46.045Z,17.04
2023-03-19T11:09:47.251Z,17.05
2023-03-19T11:12:42.141Z,16.86
2023-03-19T11:15:38.295Z,16.56
2023-03-19T11:18:28.227Z,16.62
2023-03-19T11:21:34.262Z,16.50
2023-03-19T11:24:13.357Z,16.30
2023-03-19T11:26:48.239Z,15.89
2023-03-19T11:29:25.138Z,15.49
2023-03-19T11:32:27.918Z,15.42
2023-03-19T11:35:05.586Z,15.73
2023-03-19T11:38:23.556Z,16.19
2023-03-19T11:41:36.091Z,16.35
2023-03-19T11:44:21.993Z,16.64
2023-03-19T11:47:26.439Z,17.15
2023-03-19T11:50:38.035Z,17.40
2023-03-19T11:53:30.741Z,17.62
2023-03-19T11:56:47.826Z,17.94
2023-03-19T11:59:37.494Z,18.38
2023-03-19T12:02:38.461Z,17.98
2023-03-19T12:05:37.985Z,17.88
2023-03-19T12:08:43.776Z,17.75
2023-03-19T12:11:41.502Z,17.82
2023-03-19T12:14:32.904Z,17.60
2023-03-19T12:17:18.884Z,17.76
2023-03-19T12:20:27.443Z,17.91
2023-03-19T12:23:24.632Z,17.81
2023-03-19T12:26:36.410Z,17.71
2023-03-19T12:29:44.153Z,18.09
2023-03-19T12:32:44.007Z,18.44
2023-03-19T12:35:40.650Z,18.86
2023-03-19T12:38:40.149Z,18.98
2023-03-19T12:41:25.048Z,18.89
2023-03-19T12:44:10.373Z,19.03
2023-03-19T12:46:50.747Z,19.04
2023-03-19T12:49:27.818Z,19.21
2023-03-19T12:52:31.381Z,19.18
2023-03-19T12:55:26.794Z,18.41
2023-03-19T12:58:23.352Z,18.16
2023-03-19T13:01:17.420Z,17.82
2023-03-19T13:04:02.176Z,17.43
2023-03-19T13:06:37.899Z,17.27
2023-03-19T13:09:32.531Z,17.06
2023-03-19T13:12:20.377Z,16.82
2023-03-19T13:15:45.810Z,16.42
2023-03-19T13:18:37.625Z,16.53
2023-03-19T13:25:23.969Z,17.23
2023-03-19T13:27:56.792Z,17.25
2023-03-19T13:47:08.881Z,17.66
2023-03-19T13:49:35.855Z,17.17
2023-03-19T13:52:31.840Z,16.95
2023-03-19T13:55:34.741Z,16.68
2023-03-19T13:58:23.772Z,16.42
2023-03-19T14:00:58.227Z,16.23
2023-03-19T14:03:43.796Z,16.08
2023-03-19T14:06:38.982Z,15.96
2023-03-19T14:09:32.767Z,16.45
2023-03-19T14:12:18.085Z,17.20
2023-03-19T14:14:56.766Z,17.58
2023-03-19T14:17:49.534Z,17.61
2023-03-19T14:20:20.580Z,17.32
2023-03-19T14:23:15.778Z,16.82
2023-03-19T14:26:20.316Z,16.49
2023-03-19T14:29:01.800Z,16.26
2023-03-19T14:32:01.640Z,16.22
2023-03-19T14:34:46.775Z,16.10
2023-03-19T14:37:25.598Z,15.97
2023-03-19T14:40:05.817Z,15.85
2023-03-19T14:42:42.838Z,15.72
2023-03-19T14:45:46.969Z,15.64
2023-03-19T14:48:57.837Z,15.57
2023-03-19T14:51:39.850Z,15.46
2023-03-19T14:54:42.418Z,15.34
2023-03-19T14:57:22.921Z,15.24
2023-03-19T14:59:50.730Z,15.10
2023-03-19T15:02:49.852Z,14.98
2023-03-19T15:05:37.302Z,14.98
2023-03-19T15:08:13.841Z,15.10
2023-03-19T15:11:05.439Z,15.28
2023-03-19T15:13:51.834Z,15.27
2023-03-19T15:16:21.512Z,15.22
2023-03-19T15:18:55.805Z,15.17
2023-03-19T15:21:22.784Z,15.11
2023-03-19T15:23:55.836Z,15.06
2023-03-19T15:26:42.813Z,14.96
2023-03-19T15:29:12.414Z,14.90
2023-03-19T15:32:04.904Z,14.83
2023-03-19T15:34:32.674Z,14.68
2023-03-19T15:37:18.878Z,14.54
2023-03-19T15:39:55.458Z,14.45
2023-03-19T15:42:30.863Z,14.40
2023-03-19T15:45:15.855Z,14.31
2023-03-19T15:48:06.958Z,14.22
2023-03-19T15:50:37.328Z,14.15
2023-03-19T15:53:15.837Z,14.08
2023-03-19T15:55:43.232Z,14.03
2023-03-19T15:58:22.848Z,13.93
2023-03-19T16:00:53.243Z,13.88
2023-03-19T16:03:38.861Z,13.82
2023-03-19T16:06:19.850Z,13.88
2023-03-19T16:08:56.025Z,13.98
2023-03-19T16:11:44.892Z,14.18
2023-03-19T16:14:25.562Z,14.25
2023-03-19T16:17:06.922Z,14.41
2023-03-19T16:19:56.184Z,14.43
2023-03-19T16:22:40.951Z,14.37
2023-03-19T16:25:17.096Z,14.35
2023-03-19T16:27:50.998Z,14.25
2023-03-19T16:30:23.808Z,14.22
2023-03-19T16:33:11.853Z,14.23
2023-03-19T16:35:38.755Z,14.24
2023-03-19T16:38:34.920Z,14.20
2023-03-19T16:41:29.901Z,14.08
2023-03-19T16:44:17.966Z,13.95
2023-03-19T16:46:52.046Z,13.86
2023-03-19T16:49:27.899Z,13.71
2023-03-19T16:51:54.652Z,13.58
2023-03-19T16:54:31.035Z,13.44
2023-03-19T16:56:58.994Z,13.09
2023-03-19T16:59:38.075Z,13.12
2023-03-19T17:02:22.132Z,12.98
2023-03-19T17:04:55.980Z,12.90
2023-03-19T17:07:28.953Z,12.83
2023-03-19T17:10:05.000Z,12.71
2023-03-19T17:12:31.724Z,12.56
2023-03-19T17:15:04.935Z,12.42
2023-03-19T17:17:31.714Z,12.24
2023-03-19T17:20:04.993Z,12.08
2023-03-19T17:22:31.835Z,11.93
2023-03-19T17:25:04.926Z,11.74
2023-03-19T17:27:34.576Z,11.63
2023-03-19T17:30:07.933Z,11.50
2023-03-19T17:32:34.833Z,11.38
2023-03-19T17:35:07.955Z,11.27
2023-03-19T17:37:42.918Z,11.17
2023-03-19T17:40:25.932Z,11.06
2023-03-19T17:42:53.829Z,10.96
2023-03-19T17:45:41.930Z,10.85
2023-03-19T17:48:24.952Z,10.72
2023-03-19T17:50:54.619Z,10.62
2023-03-19T17:53:27.875Z,10.50
2023-03-19T17:55:54.511Z,10.42
2023-03-19T17:58:28.873Z,10.33
2023-03-19T18:00:55.760Z,10.19
2023-03-19T18:03:31.943Z,10.10
2023-03-19T18:05:58.608Z,10.02
2023-03-19T18:08:31.925Z,9.92
2023-03-19T18:10:58.550Z,9.86
2023-03-19T18:13:31.878Z,9.80
2023-03-19T18:15:58.678Z,9.74
2023-03-19T18:18:25.848Z,9.66
2023-03-19T18:21:00.665Z,9.52
2023-03-19T18:23:33.897Z,9.51
2023-03-19T18:26:00.655Z,9.44
2023-03-19T18:28:34.007Z,9.38
2023-03-19T18:31:01.206Z,9.31
2023-03-19T18:33:37.990Z,9.29
2023-03-19T18:36:10.922Z,9.23
2023-03-19T18:38:37.588Z,9.18
2023-03-19T18:41:10.927Z,9.13
2023-03-19T18:43:37.574Z,9.08
2023-03-19T18:46:13.006Z,9.06
2023-03-19T18:48:46.514Z,9.02
2023-03-19T18:51:19.938Z,8.99
2023-03-19T18:53:46.694Z,8.94
2023-03-19T18:56:29.975Z,8.90
2023-03-19T18:59:04.959Z,8.89
2023-03-19T19:01:32.645Z,8.85
2023-03-19T19:04:06.025Z,8.80
2023-03-19T19:06:46.876Z,8.77
2023-03-19T19:09:22.088Z,8.68
2023-03-19T19:11:49.275Z,8.60
2023-03-19T19:14:26.944Z,8.54
2023-03-19T19:17:00.069Z,8.55
2023-03-19T19:19:34.137Z,8.39
2023-03-19T19:22:00.879Z,8.48
2023-03-19T19:24:40.970Z,8.44
2023-03-19T19:27:21.939Z,8.40
2023-03-19T19:29:56.011Z,8.33
2023-03-19T19:32:25.059Z,8.27
2023-03-19T19:34:59.019Z,8.19
2023-03-19T19:37:25.963Z,8.16
2023-03-19T19:39:58.966Z,8.10
2023-03-19T19:42:32.938Z,8.05
2023-03-19T19:45:06.083Z,8.04
2023-03-19T19:47:41.967Z,8.03
2023-03-19T19:50:23.945Z,8.06
2023-03-19T19:52:57.000Z,8.03
2023-03-19T19:55:33.115Z,8.10
2023-03-19T19:58:08.661Z,8.14
2023-03-19T20:01:02.226Z,8.17
2023-03-19T20:03:32.318Z,8.21
2023-03-19T20:06:06.987Z,8.24
2023-03-19T20:08:33.695Z,8.24
2023-03-19T20:11:06.971Z,8.23
2023-03-19T20:13:34.867Z,8.20
2023-03-19T20:16:03.112Z,8.22
2023-03-19T20:18:39.964Z,8.23
2023-03-19T20:21:07.488Z,8.23
2023-03-19T20:23:41.060Z,8.30
2023-03-19T20:26:13.101Z,8.36
2023-03-19T20:28:46.941Z,8.39
2023-03-19T20:31:21.445Z,8.43
2023-03-19T20:33:54.920Z,8.41
2023-03-19T20:36:21.587Z,8.47
2023-03-19T20:38:48.351Z,8.51
2023-03-19T20:41:27.971Z,8.53
2023-03-19T20:43:55.963Z,8.56
2023-03-19T20:46:29.998Z,8.56
2023-03-19T20:49:10.021Z,8.52
2023-03-19T20:51:36.759Z,8.51
2023-03-19T20:54:11.993Z,8.50
2023-03-19T20:56:53.114Z,8.47
2023-03-19T20:59:19.736Z,8.44
2023-03-19T21:01:53.021Z,8.42
2023-03-19T21:04:27.976Z,8.41
2023-03-19T21:07:00.946Z,8.41
2023-03-19T21:09:34.023Z,8.41
2023-03-19T21:12:07.000Z,8.41
2023-03-19T21:14:34.891Z,8.43
2023-03-19T21:17:08.065Z,8.45
2023-03-19T21:19:40.968Z,8.50
2023-03-19T21:22:22.035Z,8.53
2023-03-19T21:24:51.021Z,8.56
2023-03-19T21:27:34.023Z,8.50
2023-03-19T21:30:00.755Z,8.62
2023-03-19T21:32:34.119Z,8.64
2023-03-19T21:35:00.974Z,8.69
2023-03-19T21:37:34.034Z,8.72
2023-03-19T21:40:00.862Z,8.67
2023-03-19T21:42:35.968Z,8.73
2023-03-19T21:45:02.678Z,8.69
2023-03-19T21:47:43.039Z,8.77
2023-03-19T21:50:24.028Z,8.77
2023-03-19T21:53:01.273Z,8.76
2023-03-19T21:55:28.322Z,8.80
2023-03-19T21:58:04.037Z,8.81
2023-03-19T22:00:38.039Z,8.81
2023-03-19T22:03:11.029Z,8.81
2023-03-19T22:05:37.993Z,8.83
2023-03-19T22:08:11.050Z,8.83
2023-03-19T22:10:45.036Z,8.84
2023-03-19T22:13:29.115Z,8.85
2023-03-19T22:16:04.065Z,8.82
2023-03-19T22:18:30.666Z,8.85
2023-03-19T22:21:04.038Z,8.83
2023-03-19T22:23:30.746Z,8.80
2023-03-19T22:25:57.408Z,8.82
2023-03-19T22:28:39.041Z,8.83
2023-03-19T22:31:06.158Z,8.82
2023-03-19T22:33:39.067Z,8.83
2023-03-19T22:36:06.104Z,8.82
2023-03-19T22:38:39.079Z,8.82
2023-03-19T22:41:17.209Z,8.81
2023-03-19T22:43:52.023Z,8.83
2023-03-19T22:46:25.952Z,8.77
2023-03-19T22:48:59.001Z,8.81
2023-03-19T22:51:27.655Z,8.80
2023-03-19T22:54:02.001Z,8.81
2023-03-19T22:56:28.594Z,8.85
2023-03-19T22:59:03.103Z,8.87
2023-03-19T23:01:45.147Z,8.86
2023-03-19T23:04:27.067Z,8.87
2023-03-19T23:06:55.629Z,8.82
2023-03-19T23:09:38.093Z,8.87
2023-03-19T23:12:05.861Z,8.89
2023-03-19T23:14:39.151Z,8.89
2023-03-19T23:17:19.757Z,8.90
2023-03-19T23:19:53.112Z,8.91
2023-03-19T23:22:19.758Z,8.93
2023-03-19T23:24:53.149Z,8.90
2023-03-19T23:27:24.771Z,8.90
2023-03-19T23:29:59.025Z,8.87
2023-03-19T23:32:33.109Z,8.89
2023-03-19T23:35:06.120Z,8.86
2023-03-19T23:37:32.851Z,8.83
2023-03-19T23:40:06.157Z,8.82
2023-03-19T23:42:39.151Z,8.82
2023-03-19T23:45:06.735Z,8.82
2023-03-19T23:47:47.052Z,8.81
2023-03-19T23:50:13.896Z,8.79
2023-03-19T23:52:47.033Z,8.79
2023-03-19T23:55:13.728Z,8.74
2023-03-19T23:57:47.098Z,8.76
